sensor_id;sensor_type;location;lat;lon;timestamp;P1;durP1;ratioP1;P2;durP2;ratioP2
59972;SDS011;55298;-36.624;-64.282;2023-11-18T00:02:17;13.90;;;2.78;;
59972;SDS011;55298;-36.624;-64.282;2023-11-18T00:04:45;13.90;;;2.80;;
59972;SDS011;55298;-36.624;-64.282;2023-11-18T00:07:13;10.35;;;2.75;;
59972;SDS011;55298;-36.624;-64.282;2023-11-18T00:09:40;19.10;;;7.50;;
59972;SDS011;55298;-36.624;-64.282;2023-11-18T00:12:12;17.20;;;3.70;;
59972;SDS011;55298;-36.624;-64.282;2023-11-18T00:14:40;12.52;;;3.42;;
59972;SDS011;55298;-36.624;-64.282;2023-11-18T00:17:08;15.55;;;3.75;;
59972;SDS011;55298;-36.624;-64.282;2023-11-18T00:19:36;15.73;;;2.75;;
59972;SDS011;55298;-36.624;-64.282;2023-11-18T00:22:03;13.50;;;2.90;;
59972;SDS011;55298;-36.624;-64.282;2023-11-18T00:24:31;30.85;;;8.00;;
59972;SDS011;55298;-36.624;-64.282;2023-11-18T00:27:00;33.83;;;8.40;;
59972;SDS011;55298;-36.624;-64.282;2023-11-18T00:29:32;19.65;;;3.60;;
59972;SDS011;55298;-36.624;-64.282;2023-11-18T00:32:00;40.28;;;5.05;;
59972;SDS011;55298;-36.624;-64.282;2023-11-18T00:34:29;42.13;;;5.28;;
59972;SDS011;55298;-36.624;-64.282;2023-11-18T00:36:56;57.00;;;6.07;;
59972;SDS011;55298;-36.624;-64.282;2023-11-18T00:39:25;27.52;;;4.78;;
59972;SDS011;55298;-36.624;-64.282;2023-11-18T00:41:53;41.78;;;5.22;;
59972;SDS011;55298;-36.624;-64.282;2023-11-18T00:44:22;28.98;;;4.85;;
59972;SDS011;55298;-36.624;-64.282;2023-11-18T00:46:50;21.42;;;4.45;;
59972;SDS011;55298;-36.624;-64.282;2023-11-18T00:49:18;26.02;;;4.28;;
59972;SDS011;55298;-36.624;-64.282;2023-11-18T00:51:46;41.22;;;5.03;;
59972;SDS011;55298;-36.624;-64.282;2023-11-18T00:54:15;21.70;;;3.20;;
59972;SDS011;55298;-36.624;-64.282;2023-11-18T00:56:42;47.83;;;5.63;;
59972;SDS011;55298;-36.624;-64.282;2023-11-18T00:59:10;39.88;;;5.03;;
59972;SDS011;55298;-36.624;-64.282;2023-11-18T01:01:38;34.67;;;4.80;;
59972;SDS011;55298;-36.624;-64.282;2023-11-18T01:04:08;40.78;;;4.80;;
59972;SDS011;55298;-36.624;-64.282;2023-11-18T01:06:35;34.15;;;4.35;;
59972;SDS011;55298;-36.624;-64.282;2023-11-18T01:09:03;35.03;;;3.85;;
59972;SDS011;55298;-36.624;-64.282;2023-11-18T01:11:34;16.83;;;3.08;;
59972;SDS011;55298;-36.624;-64.282;2023-11-18T01:14:02;14.75;;;3.17;;
59972;SDS011;55298;-36.624;-64.282;2023-11-18T01:16:30;19.83;;;2.70;;
59972;SDS011;55298;-36.624;-64.282;2023-11-18T01:18:58;16.17;;;2.83;;
59972;SDS011;55298;-36.624;-64.282;2023-11-18T01:21:27;13.10;;;2.47;;
59972;SDS011;55298;-36.624;-64.282;2023-11-18T01:23:55;17.13;;;3.22;;
59972;SDS011;55298;-36.624;-64.282;2023-11-18T01:26:22;8.55;;;2.08;;
59972;SDS011;55298;-36.624;-64.282;2023-11-18T01:28:50;12.63;;;2.58;;
59972;SDS011;55298;-36.624;-64.282;2023-11-18T01:31:18;13.77;;;2.83;;
59972;SDS011;55298;-36.624;-64.282;2023-11-18T01:33:49;19.30;;;3.10;;
59972;SDS011;55298;-36.624;-64.282;2023-11-18T01:36:16;11.35;;;2.92;;
59972;SDS011;55298;-36.624;-64.282;2023-11-18T01:38:45;15.85;;;3.20;;
59972;SDS011;55298;-36.624;-64.282;2023-11-18T01:41:14;9.65;;;2.15;;
59972;SDS011;55298;-36.624;-64.282;2023-11-18T01:43:45;9.10;;;2.13;;
59972;SDS011;55298;-36.624;-64.282;2023-11-18T01:46:13;15.25;;;2.85;;
59972;SDS011;55298;-36.624;-64.282;2023-11-18T01:48:43;8.48;;;2.40;;
59972;SDS011;55298;-36.624;-64.282;2023-11-18T01:51:11;7.70;;;2.30;;
59972;SDS011;55298;-36.624;-64.282;2023-11-18T01:53:40;10.55;;;2.33;;
59972;SDS011;55298;-36.624;-64.282;2023-11-18T01:56:10;13.00;;;2.72;;
59972;SDS011;55298;-36.624;-64.282;2023-11-18T01:58:38;20.05;;;2.83;;
59972;SDS011;55298;-36.624;-64.282;2023-11-18T02:01:06;16.13;;;2.67;;
59972;SDS011;55298;-36.624;-64.282;2023-11-18T02:03:35;16.00;;;2.60;;
59972;SDS011;55298;-36.624;-64.282;2023-11-18T02:06:08;13.68;;;3.03;;
59972;SDS011;55298;-36.624;-64.282;2023-11-18T02:08:37;9.30;;;2.53;;
59972;SDS011;55298;-36.624;-64.282;2023-11-18T02:13:51;38.67;;;4.65;;
59972;SDS011;55298;-36.624;-64.282;2023-11-18T02:16:24;45.65;;;5.38;;
59972;SDS011;55298;-36.624;-64.282;2023-11-18T02:18:53;23.17;;;3.33;;
59972;SDS011;55298;-36.624;-64.282;2023-11-18T02:21:22;38.63;;;4.10;;
59972;SDS011;55298;-36.624;-64.282;2023-11-18T02:23:50;56.13;;;5.32;;
59972;SDS011;55298;-36.624;-64.282;2023-11-18T02:26:22;21.02;;;2.97;;
59972;SDS011;55298;-36.624;-64.282;2023-11-18T02:28:51;19.92;;;3.15;;
59972;SDS011;55298;-36.624;-64.282;2023-11-18T02:31:21;24.05;;;3.33;;
59972;SDS011;55298;-36.624;-64.282;2023-11-18T02:34:00;27.25;;;4.22;;
59972;SDS011;55298;-36.624;-64.282;2023-11-18T02:36:35;33.10;;;4.22;;
59972;SDS011;55298;-36.624;-64.282;2023-11-18T02:39:08;20.25;;;3.63;;
59972;SDS011;55298;-36.624;-64.282;2023-11-18T02:41:43;28.23;;;3.85;;
59972;SDS011;55298;-36.624;-64.282;2023-11-18T02:44:13;35.08;;;4.28;;
59972;SDS011;55298;-36.624;-64.282;2023-11-18T02:46:43;25.85;;;3.80;;
59972;SDS011;55298;-36.624;-64.282;2023-11-18T02:49:11;24.77;;;3.75;;
59972;SDS011;55298;-36.624;-64.282;2023-11-18T02:51:39;17.27;;;3.55;;
59972;SDS011;55298;-36.624;-64.282;2023-11-18T02:54:08;12.45;;;2.78;;
59972;SDS011;55298;-36.624;-64.282;2023-11-18T02:56:36;22.35;;;3.33;;
59972;SDS011;55298;-36.624;-64.282;2023-11-18T02:59:04;28.30;;;3.67;;
59972;SDS011;55298;-36.624;-64.282;2023-11-18T03:01:33;20.70;;;3.03;;
59972;SDS011;55298;-36.624;-64.282;2023-11-18T03:04:01;14.00;;;3.15;;
59972;SDS011;55298;-36.624;-64.282;2023-11-18T03:06:30;22.20;;;3.30;;
59972;SDS011;55298;-36.624;-64.282;2023-11-18T03:08:59;15.85;;;3.10;;
59972;SDS011;55298;-36.624;-64.282;2023-11-18T03:11:28;15.45;;;2.60;;
59972;SDS011;55298;-36.624;-64.282;2023-11-18T03:13:56;16.00;;;2.75;;
59972;SDS011;55298;-36.624;-64.282;2023-11-18T03:16:24;9.80;;;2.55;;
59972;SDS011;55298;-36.624;-64.282;2023-11-18T03:18:52;12.57;;;2.80;;
59972;SDS011;55298;-36.624;-64.282;2023-11-18T03:21:20;15.13;;;2.85;;
59972;SDS011;55298;-36.624;-64.282;2023-11-18T03:23:48;9.48;;;2.88;;
59972;SDS011;55298;-36.624;-64.282;2023-11-18T03:26:16;8.88;;;2.72;;
59972;SDS011;55298;-36.624;-64.282;2023-11-18T03:28:44;20.25;;;4.38;;
59972;SDS011;55298;-36.624;-64.282;2023-11-18T03:31:11;18.92;;;3.88;;
59972;SDS011;55298;-36.624;-64.282;2023-11-18T03:33:41;20.73;;;3.47;;
59972;SDS011;55298;-36.624;-64.282;2023-11-18T03:36:09;13.25;;;2.63;;
59972;SDS011;55298;-36.624;-64.282;2023-11-18T03:38:37;16.33;;;3.13;;
59972;SDS011;55298;-36.624;-64.282;2023-11-18T03:41:06;20.35;;;4.82;;
59972;SDS011;55298;-36.624;-64.282;2023-11-18T03:43:34;10.43;;;2.65;;
59972;SDS011;55298;-36.624;-64.282;2023-11-18T03:46:03;9.23;;;2.60;;
59972;SDS011;55298;-36.624;-64.282;2023-11-18T03:48:32;14.32;;;2.63;;
59972;SDS011;55298;-36.624;-64.282;2023-11-18T03:51:00;12.13;;;2.90;;
59972;SDS011;55298;-36.624;-64.282;2023-11-18T03:53:29;5.93;;;2.40;;
59972;SDS011;55298;-36.624;-64.282;2023-11-18T03:55:59;8.13;;;2.40;;
59972;SDS011;55298;-36.624;-64.282;2023-11-18T03:58:28;6.82;;;2.65;;
59972;SDS011;55298;-36.624;-64.282;2023-11-18T04:00:58;4.80;;;2.38;;
59972;SDS011;55298;-36.624;-64.282;2023-11-18T04:03:27;6.72;;;2.55;;
59972;SDS011;55298;-36.624;-64.282;2023-11-18T04:05:54;5.32;;;2.10;;
59972;SDS011;55298;-36.624;-64.282;2023-11-18T04:08:22;8.68;;;2.42;;
59972;SDS011;55298;-36.624;-64.282;2023-11-18T04:10:51;12.98;;;2.88;;
59972;SDS011;55298;-36.624;-64.282;2023-11-18T04:13:19;12.02;;;2.45;;
59972;SDS011;55298;-36.624;-64.282;2023-11-18T04:15:47;11.85;;;3.10;;
59972;SDS011;55298;-36.624;-64.282;2023-11-18T04:18:14;6.03;;;2.13;;
59972;SDS011;55298;-36.624;-64.282;2023-11-18T04:20:42;6.57;;;2.30;;
59972;SDS011;55298;-36.624;-64.282;2023-11-18T04:23:09;5.60;;;2.20;;
59972;SDS011;55298;-36.624;-64.282;2023-11-18T04:25:37;8.60;;;2.63;;
59972;SDS011;55298;-36.624;-64.282;2023-11-18T04:28:05;7.55;;;2.30;;
59972;SDS011;55298;-36.624;-64.282;2023-11-18T04:30:33;6.20;;;2.10;;
59972;SDS011;55298;-36.624;-64.282;2023-11-18T04:33:00;5.53;;;2.38;;
59972;SDS011;55298;-36.624;-64.282;2023-11-18T04:35:29;4.43;;;1.95;;
59972;SDS011;55298;-36.624;-64.282;2023-11-18T04:37:57;2.95;;;2.10;;
59972;SDS011;55298;-36.624;-64.282;2023-11-18T04:40:26;3.55;;;2.22;;
59972;SDS011;55298;-36.624;-64.282;2023-11-18T04:42:54;6.03;;;2.38;;
59972;SDS011;55298;-36.624;-64.282;2023-11-18T04:45:21;2.85;;;2.35;;
59972;SDS011;55298;-36.624;-64.282;2023-11-18T04:47:49;4.53;;;2.40;;
59972;SDS011;55298;-36.624;-64.282;2023-11-18T04:50:20;2.28;;;2.08;;
59972;SDS011;55298;-36.624;-64.282;2023-11-18T04:52:47;8.15;;;2.13;;
59972;SDS011;55298;-36.624;-64.282;2023-11-18T04:55:15;3.20;;;2.10;;
59972;SDS011;55298;-36.624;-64.282;2023-11-18T04:57:44;10.25;;;3.22;;
59972;SDS011;55298;-36.624;-64.282;2023-11-18T05:00:11;6.85;;;2.50;;
59972;SDS011;55298;-36.624;-64.282;2023-11-18T05:02:42;14.77;;;2.75;;
59972;SDS011;55298;-36.624;-64.282;2023-11-18T05:05:13;6.68;;;2.72;;
59972;SDS011;55298;-36.624;-64.282;2023-11-18T05:07:42;6.90;;;2.53;;
59972;SDS011;55298;-36.624;-64.282;2023-11-18T05:10:09;13.82;;;2.78;;
59972;SDS011;55298;-36.624;-64.282;2023-11-18T05:12:37;6.05;;;2.40;;
59972;SDS011;55298;-36.624;-64.282;2023-11-18T05:15:07;15.90;;;3.28;;
59972;SDS011;55298;-36.624;-64.282;2023-11-18T05:17:35;3.20;;;2.10;;
59972;SDS011;55298;-36.624;-64.282;2023-11-18T05:20:04;4.75;;;2.80;;
59972;SDS011;55298;-36.624;-64.282;2023-11-18T05:22:34;27.17;;;4.40;;
59972;SDS011;55298;-36.624;-64.282;2023-11-18T05:25:03;2.38;;;2.13;;
59972;SDS011;55298;-36.624;-64.282;2023-11-18T05:27:31;9.02;;;2.45;;
59972;SDS011;55298;-36.624;-64.282;2023-11-18T05:29:59;8.98;;;2.30;;
59972;SDS011;55298;-36.624;-64.282;2023-11-18T05:32:27;2.22;;;2.13;;
59972;SDS011;55298;-36.624;-64.282;2023-11-18T05:34:57;12.68;;;2.88;;
59972;SDS011;55298;-36.624;-64.282;2023-11-18T05:37:24;8.02;;;3.67;;
59972;SDS011;55298;-36.624;-64.282;2023-11-18T05:39:55;7.45;;;3.10;;
59972;SDS011;55298;-36.624;-64.282;2023-11-18T05:42:32;7.78;;;3.25;;
59972;SDS011;55298;-36.624;-64.282;2023-11-18T05:45:03;4.05;;;2.10;;
59972;SDS011;55298;-36.624;-64.282;2023-11-18T05:47:33;5.95;;;2.28;;
59972;SDS011;55298;-36.624;-64.282;2023-11-18T05:50:02;9.02;;;2.55;;
59972;SDS011;55298;-36.624;-64.282;2023-11-18T05:52:31;10.02;;;2.80;;
59972;SDS011;55298;-36.624;-64.282;2023-11-18T05:55:00;9.60;;;3.10;;
59972;SDS011;55298;-36.624;-64.282;2023-11-18T05:57:28;3.90;;;2.28;;
59972;SDS011;55298;-36.624;-64.282;2023-11-18T05:59:55;9.05;;;2.80;;
59972;SDS011;55298;-36.624;-64.282;2023-11-18T06:02:24;9.73;;;2.50;;
59972;SDS011;55298;-36.624;-64.282;2023-11-18T06:04:51;8.75;;;2.40;;
59972;SDS011;55298;-36.624;-64.282;2023-11-18T06:07:20;4.50;;;2.42;;
59972;SDS011;55298;-36.624;-64.282;2023-11-18T06:09:48;5.70;;;2.20;;
59972;SDS011;55298;-36.624;-64.282;2023-11-18T06:12:16;6.47;;;2.50;;
59972;SDS011;55298;-36.624;-64.282;2023-11-18T06:14:44;4.53;;;2.40;;
59972;SDS011;55298;-36.624;-64.282;2023-11-18T06:17:12;5.68;;;2.60;;
59972;SDS011;55298;-36.624;-64.282;2023-11-18T06:19:40;6.78;;;2.75;;
59972;SDS011;55298;-36.624;-64.282;2023-11-18T06:22:08;14.00;;;2.83;;
59972;SDS011;55298;-36.624;-64.282;2023-11-18T06:24:36;12.20;;;2.95;;
59972;SDS011;55298;-36.624;-64.282;2023-11-18T06:27:05;12.75;;;2.65;;
59972;SDS011;55298;-36.624;-64.282;2023-11-18T06:29:34;6.70;;;2.95;;
59972;SDS011;55298;-36.624;-64.282;2023-11-18T06:32:02;21.05;;;3.28;;
59972;SDS011;55298;-36.624;-64.282;2023-11-18T06:34:31;11.93;;;3.28;;
59972;SDS011;55298;-36.624;-64.282;2023-11-18T06:36:59;23.20;;;3.33;;
59972;SDS011;55298;-36.624;-64.282;2023-11-18T06:39:27;11.13;;;2.70;;
59972;SDS011;55298;-36.624;-64.282;2023-11-18T06:41:56;10.35;;;2.75;;
59972;SDS011;55298;-36.624;-64.282;2023-11-18T06:44:24;5.63;;;2.38;;
59972;SDS011;55298;-36.624;-64.282;2023-11-18T06:46:52;11.25;;;3.08;;
59972;SDS011;55298;-36.624;-64.282;2023-11-18T06:49:19;12.60;;;3.17;;
59972;SDS011;55298;-36.624;-64.282;2023-11-18T06:51:47;9.02;;;2.33;;
59972;SDS011;55298;-36.624;-64.282;2023-11-18T06:54:15;5.28;;;2.40;;
59972;SDS011;55298;-36.624;-64.282;2023-11-18T06:56:43;10.27;;;2.58;;
59972;SDS011;55298;-36.624;-64.282;2023-11-18T06:59:12;4.78;;;2.20;;
59972;SDS011;55298;-36.624;-64.282;2023-11-18T07:01:40;4.57;;;2.35;;
59972;SDS011;55298;-36.624;-64.282;2023-11-18T07:04:09;2.58;;;2.20;;
59972;SDS011;55298;-36.624;-64.282;2023-11-18T07:06:37;2.85;;;2.45;;
59972;SDS011;55298;-36.624;-64.282;2023-11-18T07:09:05;13.20;;;2.50;;
59972;SDS011;55298;-36.624;-64.282;2023-11-18T07:11:47;3.92;;;2.50;;
59972;SDS011;55298;-36.624;-64.282;2023-11-18T07:14:17;7.32;;;2.47;;
59972;SDS011;55298;-36.624;-64.282;2023-11-18T07:16:44;6.28;;;2.20;;
59972;SDS011;55298;-36.624;-64.282;2023-11-18T07:19:13;10.32;;;2.50;;
59972;SDS011;55298;-36.624;-64.282;2023-11-18T07:21:50;5.43;;;2.67;;
59972;SDS011;55298;-36.624;-64.282;2023-11-18T07:24:18;4.28;;;2.30;;
59972;SDS011;55298;-36.624;-64.282;2023-11-18T07:26:45;6.95;;;3.10;;
59972;SDS011;55298;-36.624;-64.282;2023-11-18T07:29:16;3.08;;;2.50;;
59972;SDS011;55298;-36.624;-64.282;2023-11-18T07:31:44;3.97;;;2.30;;
59972;SDS011;55298;-36.624;-64.282;2023-11-18T07:34:12;2.58;;;2.38;;
59972;SDS011;55298;-36.624;-64.282;2023-11-18T07:36:40;4.32;;;2.40;;
59972;SDS011;55298;-36.624;-64.282;2023-11-18T07:39:11;2.60;;;2.42;;
59972;SDS011;55298;-36.624;-64.282;2023-11-18T07:41:41;2.65;;;2.38;;
59972;SDS011;55298;-36.624;-64.282;2023-11-18T07:44:09;6.45;;;2.10;;
59972;SDS011;55298;-36.624;-64.282;2023-11-18T07:46:39;4.25;;;2.70;;
59972;SDS011;55298;-36.624;-64.282;2023-11-18T07:49:08;6.72;;;2.42;;
59972;SDS011;55298;-36.624;-64.282;2023-11-18T07:51:39;2.30;;;2.20;;
59972;SDS011;55298;-36.624;-64.282;2023-11-18T07:54:07;4.18;;;2.30;;
59972;SDS011;55298;-36.624;-64.282;2023-11-18T07:56:35;4.60;;;2.38;;
59972;SDS011;55298;-36.624;-64.282;2023-11-18T07:59:03;2.60;;;2.40;;
59972;SDS011;55298;-36.624;-64.282;2023-11-18T08:01:33;3.03;;;2.30;;
59972;SDS011;55298;-36.624;-64.282;2023-11-18T08:04:01;4.30;;;2.40;;
59972;SDS011;55298;-36.624;-64.282;2023-11-18T08:06:32;3.78;;;2.55;;
59972;SDS011;55298;-36.624;-64.282;2023-11-18T08:08:59;2.30;;;2.10;;
59972;SDS011;55298;-36.624;-64.282;2023-11-18T08:11:28;3.22;;;2.80;;
59972;SDS011;55298;-36.624;-64.282;2023-11-18T08:13:55;3.42;;;2.35;;
59972;SDS011;55298;-36.624;-64.282;2023-11-18T08:16:24;4.05;;;2.50;;
59972;SDS011;55298;-36.624;-64.282;2023-11-18T08:18:53;2.83;;;2.63;;
59972;SDS011;55298;-36.624;-64.282;2023-11-18T08:21:21;2.47;;;2.30;;
59972;SDS011;55298;-36.624;-64.282;2023-11-18T08:23:49;2.78;;;2.53;;
59972;SDS011;55298;-36.624;-64.282;2023-11-18T08:26:16;2.25;;;2.03;;
59972;SDS011;55298;-36.624;-64.282;2023-11-18T08:28:44;3.28;;;2.08;;
59972;SDS011;55298;-36.624;-64.282;2023-11-18T08:31:13;2.65;;;2.25;;
59972;SDS011;55298;-36.624;-64.282;2023-11-18T08:33:43;3.47;;;2.50;;
59972;SDS011;55298;-36.624;-64.282;2023-11-18T08:36:12;3.35;;;2.40;;
59972;SDS011;55298;-36.624;-64.282;2023-11-18T08:38:39;2.30;;;2.10;;
59972;SDS011;55298;-36.624;-64.282;2023-11-18T08:41:09;2.50;;;2.30;;
59972;SDS011;55298;-36.624;-64.282;2023-11-18T08:43:37;3.45;;;2.90;;
59972;SDS011;55298;-36.624;-64.282;2023-11-18T08:46:07;4.88;;;2.25;;
59972;SDS011;55298;-36.624;-64.282;2023-11-18T08:48:35;3.58;;;2.53;;
59972;SDS011;55298;-36.624;-64.282;2023-11-18T08:51:03;3.88;;;3.20;;
59972;SDS011;55298;-36.624;-64.282;2023-11-18T08:53:34;4.18;;;2.65;;
59972;SDS011;55298;-36.624;-64.282;2023-11-18T08:58:41;5.75;;;3.10;;
59972;SDS011;55298;-36.624;-64.282;2023-11-18T09:01:11;7.05;;;2.60;;
59972;SDS011;55298;-36.624;-64.282;2023-11-18T09:03:39;3.55;;;2.28;;
59972;SDS011;55298;-36.624;-64.282;2023-11-18T09:06:09;2.80;;;2.35;;
59972;SDS011;55298;-36.624;-64.282;2023-11-18T09:08:51;2.92;;;2.72;;
59972;SDS011;55298;-36.624;-64.282;2023-11-18T09:11:21;2.92;;;2.40;;
59972;SDS011;55298;-36.624;-64.282;2023-11-18T09:13:51;3.92;;;2.72;;
59972;SDS011;55298;-36.624;-64.282;2023-11-18T09:16:23;2.55;;;2.38;;
59972;SDS011;55298;-36.624;-64.282;2023-11-18T09:18:55;2.38;;;2.20;;
59972;SDS011;55298;-36.624;-64.282;2023-11-18T09:21:28;4.60;;;2.70;;
59972;SDS011;55298;-36.624;-64.282;2023-11-18T09:24:01;3.13;;;2.63;;
59972;SDS011;55298;-36.624;-64.282;2023-11-18T09:26:33;4.35;;;2.95;;
59972;SDS011;55298;-36.624;-64.282;2023-11-18T09:29:01;2.67;;;2.47;;
59972;SDS011;55298;-36.624;-64.282;2023-11-18T09:31:29;3.22;;;2.90;;
59972;SDS011;55298;-36.624;-64.282;2023-11-18T09:33:59;3.10;;;2.85;;
59972;SDS011;55298;-36.624;-64.282;2023-11-18T09:36:26;3.25;;;2.67;;
59972;SDS011;55298;-36.624;-64.282;2023-11-18T09:38:54;3.05;;;2.85;;
59972;SDS011;55298;-36.624;-64.282;2023-11-18T09:41:22;3.47;;;2.65;;
59972;SDS011;55298;-36.624;-64.282;2023-11-18T09:43:52;2.83;;;2.38;;
59972;SDS011;55298;-36.624;-64.282;2023-11-18T09:46:22;3.05;;;2.80;;
59972;SDS011;55298;-36.624;-64.282;2023-11-18T09:51:44;2.55;;;2.38;;
59972;SDS011;55298;-36.624;-64.282;2023-11-18T09:54:24;2.65;;;2.45;;
59972;SDS011;55298;-36.624;-64.282;2023-11-18T09:57:07;3.20;;;2.90;;
59972;SDS011;55298;-36.624;-64.282;2023-11-18T09:59:49;2.53;;;2.42;;
59972;SDS011;55298;-36.624;-64.282;2023-11-18T10:02:24;2.70;;;2.50;;
59972;SDS011;55298;-36.624;-64.282;2023-11-18T10:04:52;2.35;;;2.22;;
59972;SDS011;55298;-36.624;-64.282;2023-11-18T10:07:24;3.15;;;2.45;;
59972;SDS011;55298;-36.624;-64.282;2023-11-18T10:09:58;4.07;;;3.28;;
59972;SDS011;55298;-36.624;-64.282;2023-11-18T10:12:27;3.55;;;2.42;;
59972;SDS011;55298;-36.624;-64.282;2023-11-18T10:14:56;2.85;;;2.65;;
59972;SDS011;55298;-36.624;-64.282;2023-11-18T10:17:24;3.90;;;2.95;;
59972;SDS011;55298;-36.624;-64.282;2023-11-18T10:19:55;3.22;;;2.63;;
59972;SDS011;55298;-36.624;-64.282;2023-11-18T10:22:26;3.10;;;2.80;;
59972;SDS011;55298;-36.624;-64.282;2023-11-18T10:24:55;5.32;;;2.38;;
59972;SDS011;55298;-36.624;-64.282;2023-11-18T10:27:24;3.72;;;2.63;;
59972;SDS011;55298;-36.624;-64.282;2023-11-18T10:29:56;7.25;;;3.17;;
59972;SDS011;55298;-36.624;-64.282;2023-11-18T10:32:28;5.07;;;3.03;;
59972;SDS011;55298;-36.624;-64.282;2023-11-18T10:35:01;2.75;;;2.55;;
59972;SDS011;55298;-36.624;-64.282;2023-11-18T10:37:31;4.03;;;2.75;;
59972;SDS011;55298;-36.624;-64.282;2023-11-18T10:40:07;4.93;;;2.35;;
59972;SDS011;55298;-36.624;-64.282;2023-11-18T10:42:39;2.88;;;2.50;;
59972;SDS011;55298;-36.624;-64.282;2023-11-18T10:47:50;4.45;;;2.45;;
59972;SDS011;55298;-36.624;-64.282;2023-11-18T10:50:21;3.42;;;2.42;;
59972;SDS011;55298;-36.624;-64.282;2023-11-18T10:52:49;2.55;;;2.08;;
59972;SDS011;55298;-36.624;-64.282;2023-11-18T10:55:18;6.50;;;2.33;;
59972;SDS011;55298;-36.624;-64.282;2023-11-18T10:57:45;1.80;;;1.70;;
59972;SDS011;55298;-36.624;-64.282;2023-11-18T11:00:14;3.97;;;2.70;;
59972;SDS011;55298;-36.624;-64.282;2023-11-18T11:02:44;3.63;;;2.42;;
59972;SDS011;55298;-36.624;-64.282;2023-11-18T11:08:01;2.63;;;2.20;;
59972;SDS011;55298;-36.624;-64.282;2023-11-18T11:10:31;2.17;;;2.05;;
59972;SDS011;55298;-36.624;-64.282;2023-11-18T11:13:00;4.07;;;2.28;;
59972;SDS011;55298;-36.624;-64.282;2023-11-18T11:15:30;2.40;;;2.20;;
59972;SDS011;55298;-36.624;-64.282;2023-11-18T11:18:08;1.80;;;1.80;;
59972;SDS011;55298;-36.624;-64.282;2023-11-18T11:20:42;2.28;;;2.03;;
59972;SDS011;55298;-36.624;-64.282;2023-11-18T11:23:33;5.83;;;2.43;;
59972;SDS011;55298;-36.624;-64.282;2023-11-18T11:32:02;3.08;;;2.25;;
59972;SDS011;55298;-36.624;-64.282;2023-11-18T11:34:56;4.75;;;2.22;;
59972;SDS011;55298;-36.624;-64.282;2023-11-18T11:37:33;5.00;;;2.00;;
59972;SDS011;55298;-36.624;-64.282;2023-11-18T11:40:01;2.10;;;1.92;;
59972;SDS011;55298;-36.624;-64.282;2023-11-18T11:42:35;3.33;;;1.80;;
59972;SDS011;55298;-36.624;-64.282;2023-11-18T11:45:05;7.05;;;3.08;;
59972;SDS011;55298;-36.624;-64.282;2023-11-18T11:47:46;2.63;;;1.90;;
59972;SDS011;55298;-36.624;-64.282;2023-11-18T11:50:19;1.77;;;1.67;;
59972;SDS011;55298;-36.624;-64.282;2023-11-18T11:53:03;1.70;;;1.60;;
59972;SDS011;55298;-36.624;-64.282;2023-11-18T11:55:45;4.15;;;2.00;;
59972;SDS011;55298;-36.624;-64.282;2023-11-18T12:00:58;6.10;;;2.13;;
59972;SDS011;55298;-36.624;-64.282;2023-11-18T12:03:45;1.73;;;1.60;;
59972;SDS011;55298;-36.624;-64.282;2023-11-18T12:06:17;4.43;;;1.90;;
59972;SDS011;55298;-36.624;-64.282;2023-11-18T12:08:52;2.17;;;1.50;;
59972;SDS011;55298;-36.624;-64.282;2023-11-18T12:11:20;1.73;;;1.63;;
59972;SDS011;55298;-36.624;-64.282;2023-11-18T12:19:33;4.85;;;1.38;;
59972;SDS011;55298;-36.624;-64.282;2023-11-18T12:22:20;4.68;;;2.55;;
59972;SDS011;55298;-36.624;-64.282;2023-11-18T12:25:28;3.58;;;1.92;;
59972;SDS011;55298;-36.624;-64.282;2023-11-18T12:27:58;7.18;;;2.08;;
59972;SDS011;55298;-36.624;-64.282;2023-11-18T12:30:40;9.75;;;2.70;;
59972;SDS011;55298;-36.624;-64.282;2023-11-18T12:33:19;3.88;;;2.20;;
59972;SDS011;55298;-36.624;-64.282;2023-11-18T12:36:08;6.50;;;1.70;;
59972;SDS011;55298;-36.624;-64.282;2023-11-18T12:42:03;9.95;;;3.35;;
59972;SDS011;55298;-36.624;-64.282;2023-11-18T12:44:42;7.80;;;2.30;;
59972;SDS011;55298;-36.624;-64.282;2023-11-18T12:47:25;5.45;;;2.10;;
59972;SDS011;55298;-36.624;-64.282;2023-11-18T12:49:56;4.35;;;2.42;;
59972;SDS011;55298;-36.624;-64.282;2023-11-18T12:52:26;4.10;;;2.00;;
59972;SDS011;55298;-36.624;-64.282;2023-11-18T12:54:53;10.73;;;2.78;;
59972;SDS011;55298;-36.624;-64.282;2023-11-18T12:57:27;6.45;;;1.90;;
59972;SDS011;55298;-36.624;-64.282;2023-11-18T13:00:02;10.80;;;2.20;;
59972;SDS011;55298;-36.624;-64.282;2023-11-18T13:02:31;14.80;;;2.80;;
59972;SDS011;55298;-36.624;-64.282;2023-11-18T13:05:04;34.05;;;7.15;;
59972;SDS011;55298;-36.624;-64.282;2023-11-18T13:07:35;35.50;;;4.93;;
59972;SDS011;55298;-36.624;-64.282;2023-11-18T13:10:04;32.35;;;3.58;;
59972;SDS011;55298;-36.624;-64.282;2023-11-18T13:12:33;24.30;;;3.30;;
59972;SDS011;55298;-36.624;-64.282;2023-11-18T13:15:02;15.20;;;3.17;;
59972;SDS011;55298;-36.624;-64.282;2023-11-18T13:17:33;9.68;;;2.17;;
59972;SDS011;55298;-36.624;-64.282;2023-11-18T13:22:41;18.65;;;2.90;;
59972;SDS011;55298;-36.624;-64.282;2023-11-18T13:25:09;16.55;;;2.83;;
59972;SDS011;55298;-36.624;-64.282;2023-11-18T13:27:40;24.02;;;3.20;;
59972;SDS011;55298;-36.624;-64.282;2023-11-18T13:30:08;10.93;;;3.10;;
59972;SDS011;55298;-36.624;-64.282;2023-11-18T13:32:40;18.20;;;2.25;;
59972;SDS011;55298;-36.624;-64.282;2023-11-18T13:35:09;15.20;;;2.65;;
59972;SDS011;55298;-36.624;-64.282;2023-11-18T13:37:40;6.75;;;1.55;;
59972;SDS011;55298;-36.624;-64.282;2023-11-18T13:40:08;9.25;;;1.65;;
59972;SDS011;55298;-36.624;-64.282;2023-11-18T13:42:38;5.63;;;1.58;;
59972;SDS011;55298;-36.624;-64.282;2023-11-18T13:45:09;10.30;;;1.60;;
59972;SDS011;55298;-36.624;-64.282;2023-11-18T13:47:50;8.15;;;1.80;;
59972;SDS011;55298;-36.624;-64.282;2023-11-18T13:50:19;12.05;;;2.20;;
59972;SDS011;55298;-36.624;-64.282;2023-11-18T13:52:47;18.10;;;2.33;;
59972;SDS011;55298;-36.624;-64.282;2023-11-18T13:55:16;7.97;;;2.00;;
59972;SDS011;55298;-36.624;-64.282;2023-11-18T13:57:53;8.05;;;2.08;;
59972;SDS011;55298;-36.624;-64.282;2023-11-18T14:00:24;8.77;;;2.25;;
59972;SDS011;55298;-36.624;-64.282;2023-11-18T14:02:55;8.80;;;2.10;;
59972;SDS011;55298;-36.624;-64.282;2023-11-18T14:05:23;7.60;;;1.67;;
59972;SDS011;55298;-36.624;-64.282;2023-11-18T14:07:53;4.75;;;1.30;;
59972;SDS011;55298;-36.624;-64.282;2023-11-18T14:10:26;8.10;;;1.83;;
59972;SDS011;55298;-36.624;-64.282;2023-11-18T14:12:58;5.10;;;1.45;;
59972;SDS011;55298;-36.624;-64.282;2023-11-18T14:15:28;3.30;;;1.20;;
59972;SDS011;55298;-36.624;-64.282;2023-11-18T14:17:57;9.45;;;1.98;;
59972;SDS011;55298;-36.624;-64.282;2023-11-18T14:20:26;5.30;;;1.60;;
59972;SDS011;55298;-36.624;-64.282;2023-11-18T14:22:57;7.25;;;1.45;;
59972;SDS011;55298;-36.624;-64.282;2023-11-18T14:25:25;9.05;;;1.63;;
59972;SDS011;55298;-36.624;-64.282;2023-11-18T14:27:52;10.88;;;1.77;;
59972;SDS011;55298;-36.624;-64.282;2023-11-18T14:30:20;12.68;;;2.05;;
59972;SDS011;55298;-36.624;-64.282;2023-11-18T14:32:51;10.65;;;2.10;;
59972;SDS011;55298;-36.624;-64.282;2023-11-18T14:35:20;9.70;;;1.92;;
59972;SDS011;55298;-36.624;-64.282;2023-11-18T14:37:48;5.78;;;1.95;;
59972;SDS011;55298;-36.624;-64.282;2023-11-18T14:40:19;5.00;;;1.30;;
59972;SDS011;55298;-36.624;-64.282;2023-11-18T14:42:49;9.23;;;2.05;;
59972;SDS011;55298;-36.624;-64.282;2023-11-18T14:45:19;25.80;;;3.97;;
59972;SDS011;55298;-36.624;-64.282;2023-11-18T14:47:47;17.70;;;2.72;;
59972;SDS011;55298;-36.624;-64.282;2023-11-18T14:50:20;39.88;;;4.20;;
59972;SDS011;55298;-36.624;-64.282;2023-11-18T14:52:50;21.75;;;2.70;;
59972;SDS011;55298;-36.624;-64.282;2023-11-18T14:55:27;20.52;;;2.50;;